sensor_id;sensor_type;location;lat;lon;timestamp;pressure;altitude;pressure_sealevel;temperature;humidity
3748;BME280;1889;50.058;8.688;2023-03-03T00:01:52;100608.03;;;8.50;43.40
3748;BME280;1889;50.058;8.688;2023-03-03T00:04:22;100603.65;;;8.35;43.97
3748;BME280;1889;50.058;8.688;2023-03-03T00:06:51;100612.81;;;7.91;45.13
3748;BME280;1889;50.058;8.688;2023-03-03T00:09:20;100613.22;;;7.80;45.69
3748;BME280;1889;50.058;8.688;2023-03-03T00:11:57;100616.75;;;7.99;45.26
3748;BME280;1889;50.058;8.688;2023-03-03T00:14:32;100609.30;;;8.20;44.56
3748;BME280;1889;50.058;8.688;2023-03-03T00:16:59;100610.21;;;8.37;44.34
3748;BME280;1889;50.058;8.688;2023-03-03T00:19:30;100612.40;;;8.50;44.02
3748;BME280;1889;50.058;8.688;2023-03-03T00:22:00;100618.94;;;8.45;44.19
3748;BME280;1889;50.058;8.688;2023-03-03T00:24:36;100625.94;;;8.35;44.38
3748;BME280;1889;50.058;8.688;2023-03-03T00:27:33;100627.67;;;8.23;44.77
3748;BME280;1889;50.058;8.688;2023-03-03T00:30:01;100627.65;;;7.95;45.70
3748;BME280;1889;50.058;8.688;2023-03-03T00:32:43;100626.36;;;8.15;45.23
3748;BME280;1889;50.058;8.688;2023-03-03T00:38:01;100634.22;;;8.12;45.42
3748;BME280;1889;50.058;8.688;2023-03-03T00:40:34;100637.77;;;8.32;45.13
3748;BME280;1889;50.058;8.688;2023-03-03T00:43:39;100646.92;;;8.35;45.21
3748;BME280;1889;50.058;8.688;2023-03-03T00:45:51;100649.53;;;8.52;44.88
3748;BME280;1889;50.058;8.688;2023-03-03T00:53:52;100649.97;;;8.24;45.94
3748;BME280;1889;50.058;8.688;2023-03-03T00:56:22;100653.47;;;8.19;46.04
3748;BME280;1889;50.058;8.688;2023-03-03T00:58:51;100652.15;;;8.25;46.19
3748;BME280;1889;50.058;8.688;2023-03-03T01:01:21;100653.05;;;8.40;45.97
3748;BME280;1889;50.058;8.688;2023-03-03T01:03:52;100647.77;;;8.28;46.12
3748;BME280;1889;50.058;8.688;2023-03-03T01:06:21;100653.01;;;8.28;46.28
3748;BME280;1889;50.058;8.688;2023-03-03T01:08:51;100651.69;;;8.19;46.35
3748;BME280;1889;50.058;8.688;2023-03-03T01:11:23;100657.86;;;8.38;46.16
3748;BME280;1889;50.058;8.688;2023-03-03T01:13:53;100652.62;;;8.41;46.35
3748;BME280;1889;50.058;8.688;2023-03-03T01:16:24;100647.34;;;8.26;46.50
3748;BME280;1889;50.058;8.688;2023-03-03T01:18:53;100650.00;;;8.32;46.55
3748;BME280;1889;50.058;8.688;2023-03-03T01:21:23;100645.62;;;8.40;46.47
3748;BME280;1889;50.058;8.688;2023-03-03T01:23:52;100646.89;;;8.28;46.81
3748;BME280;1889;50.058;8.688;2023-03-03T01:26:21;100643.43;;;8.38;46.65
3748;BME280;1889;50.058;8.688;2023-03-03T01:28:51;100643.42;;;8.46;46.57
3748;BME280;1889;50.058;8.688;2023-03-03T01:31:20;100648.64;;;8.15;47.26
3748;BME280;1889;50.058;8.688;2023-03-03T01:33:50;100650.44;;;8.42;46.96
3748;BME280;1889;50.058;8.688;2023-03-03T01:36:23;100644.77;;;8.35;46.96
3748;BME280;1889;50.058;8.688;2023-03-03T01:38:53;100640.83;;;8.33;46.99
3748;BME280;1889;50.058;8.688;2023-03-03T01:41:25;100645.20;;;8.34;46.99
3748;BME280;1889;50.058;8.688;2023-03-03T01:43:54;100642.12;;;8.39;47.06
3748;BME280;1889;50.058;8.688;2023-03-03T01:49:10;100633.39;;;8.33;47.22
3748;BME280;1889;50.058;8.688;2023-03-03T01:51:37;100631.64;;;8.32;47.21
3748;BME280;1889;50.058;8.688;2023-03-03T01:54:11;100634.27;;;8.35;47.30
3748;BME280;1889;50.058;8.688;2023-03-03T01:56:41;100629.00;;;8.38;47.18
3748;BME280;1889;50.058;8.688;2023-03-03T01:59:19;100629.87;;;8.37;47.34
3748;BME280;1889;50.058;8.688;2023-03-03T02:01:45;100632.52;;;8.31;47.69
3748;BME280;1889;50.058;8.688;2023-03-03T02:04:16;100641.22;;;8.22;47.56
3748;BME280;1889;50.058;8.688;2023-03-03T02:06:49;100634.22;;;8.06;47.78
3748;BME280;1889;50.058;8.688;2023-03-03T02:09:26;100631.17;;;8.10;47.78
3748;BME280;1889;50.058;8.688;2023-03-03T02:11:58;100634.66;;;8.15;47.73
3748;BME280;1889;50.058;8.688;2023-03-03T02:14:28;100635.97;;;7.93;48.29
3748;BME280;1889;50.058;8.688;2023-03-03T02:16:57;100635.09;;;7.85;48.78
3748;BME280;1889;50.058;8.688;2023-03-03T02:19:51;100630.27;;;7.95;48.37
3748;BME280;1889;50.058;8.688;2023-03-03T02:22:23;100628.98;;;8.00;48.28
3748;BME280;1889;50.058;8.688;2023-03-03T02:24:55;100624.62;;;8.08;48.17
3748;BME280;1889;50.058;8.688;2023-03-03T02:27:26;100623.73;;;8.04;48.13
3748;BME280;1889;50.058;8.688;2023-03-03T02:29:56;100621.56;;;8.09;48.16
3748;BME280;1889;50.058;8.688;2023-03-03T02:32:25;100625.47;;;8.12;48.12
3748;BME280;1889;50.058;8.688;2023-03-03T02:34:55;100635.98;;;8.10;48.11
3748;BME280;1889;50.058;8.688;2023-03-03T02:37:24;100646.01;;;8.12;48.07
3748;BME280;1889;50.058;8.688;2023-03-03T02:39:54;100641.64;;;8.05;48.09
3748;BME280;1889;50.058;8.688;2023-03-03T02:42:26;100642.50;;;7.84;48.35
3748;BME280;1889;50.058;8.688;2023-03-03T02:44:56;100634.64;;;7.84;48.33
3748;BME280;1889;50.058;8.688;2023-03-03T02:47:25;100634.66;;;7.86;48.33
3748;BME280;1889;50.058;8.688;2023-03-03T02:49:54;100641.17;;;7.81;48.41
3748;BME280;1889;50.058;8.688;2023-03-03T02:52:24;100642.93;;;7.82;48.40
3748;BME280;1889;50.058;8.688;2023-03-03T02:54:53;100646.86;;;7.88;48.26
3748;BME280;1889;50.058;8.688;2023-03-03T02:57:22;100643.81;;;7.84;48.28
3748;BME280;1889;50.058;8.688;2023-03-03T02:59:52;100645.54;;;7.81;48.39
3748;BME280;1889;50.058;8.688;2023-03-03T03:02:21;100645.53;;;7.79;48.43
3748;BME280;1889;50.058;8.688;2023-03-03T03:04:50;100642.07;;;7.85;48.48
3748;BME280;1889;50.058;8.688;2023-03-03T03:07:20;100637.27;;;7.90;48.47
3748;BME280;1889;50.058;8.688;2023-03-03T03:09:49;100637.25;;;7.83;48.62
3748;BME280;1889;50.058;8.688;2023-03-03T03:12:18;100635.08;;;7.78;48.66
3748;BME280;1889;50.058;8.688;2023-03-03T03:14:48;100637.20;;;7.54;49.07
3748;BME280;1889;50.058;8.688;2023-03-03T03:17:18;100642.01;;;7.59;49.04
3748;BME280;1889;50.058;8.688;2023-03-03T03:19:47;100644.19;;;7.64;48.95
3748;BME280;1889;50.058;8.688;2023-03-03T03:22:16;100637.64;;;7.59;49.00
3748;BME280;1889;50.058;8.688;2023-03-03T03:24:46;100643.33;;;7.60;49.01
3748;BME280;1889;50.058;8.688;2023-03-03T03:27:15;100646.80;;;7.58;49.13
3748;BME280;1889;50.058;8.688;2023-03-03T03:29:46;100643.31;;;7.53;49.29
3748;BME280;1889;50.058;8.688;2023-03-03T03:32:15;100645.05;;;7.52;49.39
3748;BME280;1889;50.058;8.688;2023-03-03T03:34:45;100648.11;;;7.58;49.20
3748;BME280;1889;50.058;8.688;2023-03-03T03:37:14;100649.47;;;7.75;49.11
3748;BME280;1889;50.058;8.688;2023-03-03T03:39:44;100645.52;;;7.72;49.39
3748;BME280;1889;50.058;8.688;2023-03-03T03:42:13;100642.85;;;7.55;49.69
3748;BME280;1889;50.058;8.688;2023-03-03T03:44:42;100642.89;;;7.61;49.67
3748;BME280;1889;50.058;8.688;2023-03-03T03:47:12;100648.50;;;7.47;49.92
3748;BME280;1889;50.058;8.688;2023-03-03T03:49:47;100648.11;;;7.58;49.83
3748;BME280;1889;50.058;8.688;2023-03-03T03:52:12;100654.20;;;7.55;49.84
3748;BME280;1889;50.058;8.688;2023-03-03T03:54:42;100661.67;;;7.62;49.80
3748;BME280;1889;50.058;8.688;2023-03-03T03:57:11;100655.07;;;7.54;50.06
3748;BME280;1889;50.058;8.688;2023-03-03T03:59:41;100655.52;;;7.57;49.98
3748;BME280;1889;50.058;8.688;2023-03-03T04:02:10;100659.48;;;7.61;50.16
3748;BME280;1889;50.058;8.688;2023-03-03T04:04:39;100659.00;;;7.50;50.44
3748;BME280;1889;50.058;8.688;2023-03-03T04:07:09;100660.72;;;7.42;50.56
3748;BME280;1889;50.058;8.688;2023-03-03T04:09:38;100656.34;;;7.41;50.62
3748;BME280;1889;50.058;8.688;2023-03-03T04:12:07;100658.34;;;6.97;51.89
3748;BME280;1889;50.058;8.688;2023-03-03T04:14:37;100661.48;;;7.13;51.81
3748;BME280;1889;50.058;8.688;2023-03-03T04:17:06;100663.58;;;7.00;52.02
3748;BME280;1889;50.058;8.688;2023-03-03T04:19:36;100658.02;;;7.20;51.62
3748;BME280;1889;50.058;8.688;2023-03-03T04:22:05;100665.49;;;7.39;51.28
3748;BME280;1889;50.058;8.688;2023-03-03T04:24:34;100664.14;;;7.21;51.84
3748;BME280;1889;50.058;8.688;2023-03-03T04:27:04;100667.16;;;7.17;51.86
3748;BME280;1889;50.058;8.688;2023-03-03T04:29:34;100672.97;;;6.68;53.24
3748;BME280;1889;50.058;8.688;2023-03-03T04:32:03;100681.41;;;6.92;52.68
3748;BME280;1889;50.058;8.688;2023-03-03T04:34:33;100689.77;;;7.03;52.30
3748;BME280;1889;50.058;8.688;2023-03-03T04:37:02;100679.63;;;6.86;52.74
3748;BME280;1889;50.058;8.688;2023-03-03T04:39:32;100676.75;;;7.17;52.32
3748;BME280;1889;50.058;8.688;2023-03-03T04:42:01;100676.11;;;6.82;53.00
3748;BME280;1889;50.058;8.688;2023-03-03T04:44:30;100677.84;;;6.82;52.92
3748;BME280;1889;50.058;8.688;2023-03-03T04:47:00;100675.23;;;6.79;53.10
3748;BME280;1889;50.058;8.688;2023-03-03T04:49:29;100678.63;;;6.67;53.08
3748;BME280;1889;50.058;8.688;2023-03-03T04:51:58;100683.56;;;6.86;52.83
3748;BME280;1889;50.058;8.688;2023-03-03T04:54:28;100678.69;;;6.76;52.99
3748;BME280;1889;50.058;8.688;2023-03-03T04:56:57;100673.39;;;6.64;53.65
3748;BME280;1889;50.058;8.688;2023-03-03T04:59:26;100678.74;;;6.81;53.02
3748;BME280;1889;50.058;8.688;2023-03-03T05:01:56;100676.14;;;6.85;52.72
3748;BME280;1889;50.058;8.688;2023-03-03T05:04:25;100681.09;;;6.49;53.84
3748;BME280;1889;50.058;8.688;2023-03-03T05:06:54;100678.27;;;6.77;53.17
3748;BME280;1889;50.058;8.688;2023-03-03T05:09:24;100683.44;;;6.14;55.06
3748;BME280;1889;50.058;8.688;2023-03-03T05:11:54;100691.91;;;6.36;54.25
3748;BME280;1889;50.058;8.688;2023-03-03T05:14:23;100695.91;;;6.45;53.81
3748;BME280;1889;50.058;8.688;2023-03-03T05:16:53;100688.98;;;6.52;53.59
3748;BME280;1889;50.058;8.688;2023-03-03T05:19:22;100690.89;;;6.76;53.24
3748;BME280;1889;50.058;8.688;2023-03-03T05:21:52;100696.06;;;6.67;53.21
3748;BME280;1889;50.058;8.688;2023-03-03T05:24:22;100700.60;;;6.35;54.27
3748;BME280;1889;50.058;8.688;2023-03-03T05:26:51;100695.01;;;6.43;53.86
3748;BME280;1889;50.058;8.688;2023-03-03T05:29:20;100699.47;;;6.55;53.61
3748;BME280;1889;50.058;8.688;2023-03-03T05:31:50;100699.78;;;6.42;53.98
3748;BME280;1889;50.058;8.688;2023-03-03T05:34:19;100701.32;;;6.70;53.49
3748;BME280;1889;50.058;8.688;2023-03-03T05:36:48;100697.70;;;6.53;53.60
3748;BME280;1889;50.058;8.688;2023-03-03T05:39:18;100701.16;;;6.50;53.78
3748;BME280;1889;50.058;8.688;2023-03-03T05:41:47;100705.97;;;6.52;53.80
3748;BME280;1889;50.058;8.688;2023-03-03T05:44:16;100701.88;;;6.31;54.34
3748;BME280;1889;50.058;8.688;2023-03-03T05:46:46;100708.64;;;6.60;53.74
3748;BME280;1889;50.058;8.688;2023-03-03T05:49:15;100710.42;;;6.62;53.54
3748;BME280;1889;50.058;8.688;2023-03-03T05:51:44;100707.14;;;6.35;53.90
3748;BME280;1889;50.058;8.688;2023-03-03T05:54:14;100711.02;;;6.29;54.07
3748;BME280;1889;50.058;8.688;2023-03-03T05:56:43;100704.52;;;6.35;53.96
3748;BME280;1889;50.058;8.688;2023-03-03T05:59:12;100708.46;;;6.37;54.18
3748;BME280;1889;50.058;8.688;2023-03-03T06:01:42;100714.59;;;6.42;53.97
3748;BME280;1889;50.058;8.688;2023-03-03T06:04:11;100718.87;;;6.31;54.14
3748;BME280;1889;50.058;8.688;2023-03-03T06:06:40;100725.69;;;5.78;55.69
3748;BME280;1889;50.058;8.688;2023-03-03T06:09:10;100722.39;;;5.93;55.43
3748;BME280;1889;50.058;8.688;2023-03-03T06:11:39;100719.06;;;6.06;54.91
3748;BME280;1889;50.058;8.688;2023-03-03T06:14:08;100721.41;;;5.83;55.72
3748;BME280;1889;50.058;8.688;2023-03-03T06:16:38;100730.38;;;6.05;55.19
3748;BME280;1889;50.058;8.688;2023-03-03T06:19:07;100740.95;;;5.80;55.79
3748;BME280;1889;50.058;8.688;2023-03-03T06:21:36;100753.16;;;5.81;55.86
3748;BME280;1889;50.058;8.688;2023-03-03T06:24:06;100750.13;;;5.85;56.00
3748;BME280;1889;50.058;8.688;2023-03-03T06:26:35;100749.27;;;5.86;56.37
3748;BME280;1889;50.058;8.688;2023-03-03T06:29:05;100751.98;;;5.24;58.39
3748;BME280;1889;50.058;8.688;2023-03-03T06:31:34;100758.68;;;5.37;58.01
3748;BME280;1889;50.058;8.688;2023-03-03T06:34:03;100761.56;;;5.25;58.68
3748;BME280;1889;50.058;8.688;2023-03-03T06:36:33;100767.03;;;5.45;58.47
3748;BME280;1889;50.058;8.688;2023-03-03T06:39:02;100763.50;;;5.40;59.03
3748;BME280;1889;50.058;8.688;2023-03-03T06:41:32;100762.61;;;5.71;57.93
3748;BME280;1889;50.058;8.688;2023-03-03T06:44:01;100764.59;;;5.89;57.34
3748;BME280;1889;50.058;8.688;2023-03-03T06:46:31;100772.79;;;5.50;58.76
3748;BME280;1889;50.058;8.688;2023-03-03T06:49:00;100772.89;;;5.90;57.83
3748;BME280;1889;50.058;8.688;2023-03-03T06:51:34;100780.30;;;5.91;57.77
3748;BME280;1889;50.058;8.688;2023-03-03T06:54:12;100785.02;;;5.23;59.89
3748;BME280;1889;50.058;8.688;2023-03-03T06:56:43;100791.25;;;5.33;59.87
3748;BME280;1889;50.058;8.688;2023-03-03T06:59:18;100797.75;;;5.04;60.71
3748;BME280;1889;50.058;8.688;2023-03-03T07:01:48;100795.48;;;5.56;59.69
3748;BME280;1889;50.058;8.688;2023-03-03T07:07:07;100801.58;;;5.56;59.63
3748;BME280;1889;50.058;8.688;2023-03-03T07:09:34;100812.89;;;4.98;60.55
3748;BME280;1889;50.058;8.688;2023-03-03T07:12:12;100817.23;;;4.48;63.45
3748;BME280;1889;50.058;8.688;2023-03-03T07:14:44;100814.62;;;4.97;61.72
3748;BME280;1889;50.058;8.688;2023-03-03T07:17:18;100812.05;;;5.27;60.36
3748;BME280;1889;50.058;8.688;2023-03-03T07:19:48;100822.65;;;4.83;62.29
3748;BME280;1889;50.058;8.688;2023-03-03T07:22:20;100824.47;;;4.89;62.05
3748;BME280;1889;50.058;8.688;2023-03-03T07:24:51;100827.31;;;4.76;62.52
3748;BME280;1889;50.058;8.688;2023-03-03T07:27:26;100833.96;;;5.12;61.58
3748;BME280;1889;50.058;8.688;2023-03-03T07:30:16;100836.23;;;4.90;62.17
3748;BME280;1889;50.058;8.688;2023-03-03T07:32:46;100831.16;;;5.26;61.10
3748;BME280;1889;50.058;8.688;2023-03-03T07:35:27;100838.08;;;5.24;60.91
3748;BME280;1889;50.058;8.688;2023-03-03T07:37:54;100840.06;;;5.40;60.79
3748;BME280;1889;50.058;8.688;2023-03-03T07:40:37;100842.65;;;5.38;60.79
3748;BME280;1889;50.058;8.688;2023-03-03T07:43:25;100845.05;;;5.54;60.17
3748;BME280;1889;50.058;8.688;2023-03-03T07:45:51;100851.58;;;5.54;60.18
3748;BME280;1889;50.058;8.688;2023-03-03T07:48:29;100846.02;;;5.31;61.10
3748;BME280;1889;50.058;8.688;2023-03-03T07:50:58;100855.36;;;5.74;60.22
3748;BME280;1889;50.058;8.688;2023-03-03T07:53:33;100852.34;;;6.07;59.15
3748;BME280;1889;50.058;8.688;2023-03-03T07:56:21;100854.77;;;6.29;58.50
3748;BME280;1889;50.058;8.688;2023-03-03T07:58:47;100869.72;;;5.74;59.38
3748;BME280;1889;50.058;8.688;2023-03-03T08:01:28;100870.67;;;5.52;60.18
3748;BME280;1889;50.058;8.688;2023-03-03T08:03:59;100874.55;;;5.21;61.15
3748;BME280;1889;50.058;8.688;2023-03-03T08:06:38;100876.88;;;5.04;61.26
3748;BME280;1889;50.058;8.688;2023-03-03T08:11:57;100875.06;;;5.25;61.95
3748;BME280;1889;50.058;8.688;2023-03-03T08:14:37;100875.45;;;5.80;60.11
3748;BME280;1889;50.058;8.688;2023-03-03T08:17:01;100877.03;;;5.98;59.62
3748;BME280;1889;50.058;8.688;2023-03-03T08:19:33;100878.19;;;5.88;59.59
3748;BME280;1889;50.058;8.688;2023-03-03T08:22:14;100884.71;;;5.30;61.07
3748;BME280;1889;50.058;8.688;2023-03-03T08:24:38;100878.95;;;5.53;60.72
3748;BME280;1889;50.058;8.688;2023-03-03T08:27:08;100871.33;;;5.37;61.33
3748;BME280;1889;50.058;8.688;2023-03-03T08:29:37;100874.39;;;5.38;61.44
3748;BME280;1889;50.058;8.688;2023-03-03T08:32:06;100880.47;;;5.09;62.25
3748;BME280;1889;50.058;8.688;2023-03-03T08:34:36;100876.67;;;5.74;60.84
3748;BME280;1889;50.058;8.688;2023-03-03T08:37:05;100875.11;;;6.19;59.77
3748;BME280;1889;50.058;8.688;2023-03-03T08:39:34;100884.45;;;6.36;59.42
3748;BME280;1889;50.058;8.688;2023-03-03T08:42:04;100879.50;;;6.22;58.87
3748;BME280;1889;50.058;8.688;2023-03-03T08:44:33;100877.81;;;6.67;58.47
3748;BME280;1889;50.058;8.688;2023-03-03T08:47:02;100873.75;;;6.98;57.79
3748;BME280;1889;50.058;8.688;2023-03-03T08:49:32;100872.61;;;6.68;58.22
3748;BME280;1889;50.058;8.688;2023-03-03T08:52:01;100877.63;;;6.92;57.80
3748;BME280;1889;50.058;8.688;2023-03-03T08:54:30;100877.32;;;7.04;57.55
3748;BME280;1889;50.058;8.688;2023-03-03T08:57:00;100874.53;;;6.86;57.71
3748;BME280;1889;50.058;8.688;2023-03-03T08:59:29;100878.56;;;7.00;57.22
3748;BME280;1889;50.058;8.688;2023-03-03T09:01:58;100881.56;;;6.93;57.18
3748;BME280;1889;50.058;8.688;2023-03-03T09:04:28;100881.48;;;7.35;56.28
3748;BME280;1889;50.058;8.688;2023-03-03T09:06:57;100891.39;;;7.18;55.49
3748;BME280;1889;50.058;8.688;2023-03-03T09:09:26;100882.59;;;6.66;56.79
3748;BME280;1889;50.058;8.688;2023-03-03T09:12:02;100897.17;;;6.84;57.00
3748;BME280;1889;50.058;8.688;2023-03-03T09:14:31;100889.08;;;6.21;58.26
3748;BME280;1889;50.058;8.688;2023-03-03T09:17:00;100878.84;;;6.41;58.40
3748;BME280;1889;50.058;8.688;2023-03-03T09:19:32;100889.28;;;6.38;58.65
3748;BME280;1889;50.058;8.688;2023-03-03T09:22:21;100884.77;;;6.63;58.01
3748;BME280;1889;50.058;8.688;2023-03-03T09:24:52;100890.54;;;6.75;58.01
3748;BME280;1889;50.058;8.688;2023-03-03T09:27:27;100896.64;;;6.72;57.61
3748;BME280;1889;50.058;8.688;2023-03-03T09:30:09;100897.42;;;6.67;57.70
3748;BME280;1889;50.058;8.688;2023-03-03T09:35:25;100893.97;;;7.15;57.12
3748;BME280;1889;50.058;8.688;2023-03-03T09:37:48;100891.20;;;7.51;55.54
3748;BME280;1889;50.058;8.688;2023-03-03T09:43:23;100898.69;;;7.04;56.68
3748;BME280;1889;50.058;8.688;2023-03-03T09:46:17;100899.08;;;6.56;57.61
3748;BME280;1889;50.058;8.688;2023-03-03T09:48:54;100901.37;;;6.68;57.73
3748;BME280;1889;50.058;8.688;2023-03-03T09:59:48;100906.25;;;6.02;59.50
3748;BME280;1889;50.058;8.688;2023-03-03T10:02:30;100910.09;;;5.67;60.55
3748;BME280;1889;50.058;8.688;2023-03-03T10:05:12;100914.56;;;6.05;60.12
3748;BME280;1889;50.058;8.688;2023-03-03T10:07:50;100912.48;;;6.47;59.09
3748;BME280;1889;50.058;8.688;2023-03-03T10:16:15;100919.28;;;7.13;56.99
3748;BME280;1889;50.058;8.688;2023-03-03T10:21:29;100924.56;;;6.76;57.54
3748;BME280;1889;50.058;8.688;2023-03-03T10:27:04;100929.82;;;7.24;56.34
3748;BME280;1889;50.058;8.688;2023-03-03T10:30:07;100939.54;;;7.39;55.44
3748;BME280;1889;50.058;8.688;2023-03-03T10:32:42;100935.77;;;7.54;55.36
3748;BME280;1889;50.058;8.688;2023-03-03T10:43:57;100943.30;;;7.70;54.12
3748;BME280;1889;50.058;8.688;2023-03-03T10:52:28;100940.03;;;6.95;56.67
3748;BME280;1889;50.058;8.688;2023-03-03T11:00:19;100941.89;;;7.08;55.64
3748;BME280;1889;50.058;8.688;2023-03-03T11:05:39;100934.88;;;6.63;57.24
3748;BME280;1889;50.058;8.688;2023-03-03T11:08:13;100931.17;;;6.81;57.12
3748;BME280;1889;50.058;8.688;2023-03-03T11:11:02;100926.77;;;7.24;56.39
3748;BME280;1889;50.058;8.688;2023-03-03T11:13:44;100924.80;;;7.50;55.77
3748;BME280;1889;50.058;8.688;2023-03-03T11:16:23;100927.50;;;7.59;55.35
3748;BME280;1889;50.058;8.688;2023-03-03T11:24:31;100932.06;;;7.86;54.02
3748;BME280;1889;50.058;8.688;2023-03-03T11:30:00;100924.75;;;8.08;53.34
3748;BME280;1889;50.058;8.688;2023-03-03T11:32:47;100916.62;;;8.39;52.94
3748;BME280;1889;50.058;8.688;2023-03-03T11:35:37;100919.22;;;8.36;53.01
3748;BME280;1889;50.058;8.688;2023-03-03T11:38:35;100918.17;;;8.05;52.92
3748;BME280;1889;50.058;8.688;2023-03-03T11:41:31;100913.03;;;8.28;52.73
3748;BME280;1889;50.058;8.688;2023-03-03T11:47:17;100908.67;;;8.25;53.29
3748;BME280;1889;50.058;8.688;2023-03-03T11:50:01;100895.72;;;8.69;52.41
3748;BME280;1889;50.058;8.688;2023-03-03T11:58:30;100887.00;;;8.73;51.92
3748;BME280;1889;50.058;8.688;2023-03-03T12:01:20;100883.50;;;8.79;51.46
3748;BME280;1889;50.058;8.688;2023-03-03T12:04:13;100882.66;;;9.26;50.44
3748;BME280;1889;50.058;8.688;2023-03-03T12:12:47;100867.36;;;9.31;49.72
3748;BME280;1889;50.058;8.688;2023-03-03T12:15:26;100867.78;;;8.97;50.00
3748;BME280;1889;50.058;8.688;2023-03-03T12:18:09;100866.89;;;9.44;50.12
3748;BME280;1889;50.058;8.688;2023-03-03T12:23:36;100858.95;;;9.79;48.23
3748;BME280;1889;50.058;8.688;2023-03-03T12:26:16;100847.09;;;9.88;48.73
3748;BME280;1889;50.058;8.688;2023-03-03T12:29:09;100849.26;;;9.93;48.67
3748;BME280;1889;50.058;8.688;2023-03-03T12:31:40;100840.44;;;10.12;47.69
3748;BME280;1889;50.058;8.688;2023-03-03T12:34:31;100838.71;;;10.01;47.68
3748;BME280;1889;50.058;8.688;2023-03-03T12:40:02;100841.63;;;10.44;47.24
3748;BME280;1889;50.058;8.688;2023-03-03T12:45:36;100830.27;;;10.35;47.24
3748;BME280;1889;50.058;8.688;2023-03-03T12:48:20;100834.47;;;9.51;47.82
3748;BME280;1889;50.058;8.688;2023-03-03T12:51:08;100828.66;;;9.91;48.08
3748;BME280;1889;50.058;8.688;2023-03-03T12:53:48;100831.77;;;9.89;47.57
3748;BME280;1889;50.058;8.688;2023-03-03T12:59:13;100831.86;;;9.55;47.97
3748;BME280;1889;50.058;8.688;2023-03-03T13:01:56;100837.13;;;9.33;47.97
3748;BME280;1889;50.058;8.688;2023-03-03T13:04:37;100830.05;;;9.65;47.73
3748;BME280;1889;50.058;8.688;2023-03-03T13:09:58;100815.14;;;9.78;47.42
3748;BME280;1889;50.058;8.688;2023-03-03T13:12:42;100818.64;;;9.74;47.34
3748;BME280;1889;50.058;8.688;2023-03-03T13:20:50;100806.87;;;9.65;47.47
3748;BME280;1889;50.058;8.688;2023-03-03T13:29:19;100804.66;;;9.69;46.35
3748;BME280;1889;50.058;8.688;2023-03-03T13:32:37;100808.59;;;9.66;47.58
3748;BME280;1889;50.058;8.688;2023-03-03T13:34:36;100802.41;;;9.88;46.90
3748;BME280;1889;50.058;8.688;2023-03-03T13:37:22;100801.56;;;9.80;46.62
3748;BME280;1889;50.058;8.688;2023-03-03T13:39:58;100798.35;;;10.09;46.43
3748;BME280;1889;50.058;8.688;2023-03-03T13:45:02;100799.80;;;10.68;46.11
3748;BME280;1889;50.058;8.688;2023-03-03T13:47:39;100798.61;;;11.04;45.08
3748;BME280;1889;50.058;8.688;2023-03-03T14:01:26;100780.44;;;11.23;44.04
3748;BME280;1889;50.058;8.688;2023-03-03T14:04:09;100777.89;;;11.14;43.03
3748;BME280;1889;50.058;8.688;2023-03-03T14:06:39;100785.48;;;10.44;44.48
3748;BME280;1889;50.058;8.688;2023-03-03T14:09:21;100770.73;;;10.79;44.40
3748;BME280;1889;50.058;8.688;2023-03-03T14:12:13;100773.91;;;11.19;43.96
3748;BME280;1889;50.058;8.688;2023-03-03T14:20:24;100765.58;;;11.58;43.30
3748;BME280;1889;50.058;8.688;2023-03-03T14:22:57;100756.28;;;11.63;42.66
3748;BME280;1889;50.058;8.688;2023-03-03T14:25:26;100776.33;;;11.38;42.49
3748;BME280;1889;50.058;8.688;2023-03-03T14:28:04;100767.41;;;11.08;43.04
3748;BME280;1889;50.058;8.688;2023-03-03T14:30:37;100767.55;;;11.78;42.36
3748;BME280;1889;50.058;8.688;2023-03-03T14:41:12;100764.55;;;11.29;42.47
3748;BME280;1889;50.058;8.688;2023-03-03T14:43:55;100764.55;;;11.29;42.47
3748;BME280;1889;50.058;8.688;2023-03-03T14:46:33;100763.41;;;11.53;42.30
3748;BME280;1889;50.058;8.688;2023-03-03T14:49:10;100759.98;;;11.46;42.30
3748;BME280;1889;50.058;8.688;2023-03-03T14:51:51;100756.27;;;11.64;42.43
3748;BME280;1889;50.058;8.688;2023-03-03T14:54:22;100756.27;;;11.64;42.43
3748;BME280;1889;50.058;8.688;2023-03-03T14:57:17;100755.82;;;12.01;42.17
3748;BME280;1889;50.058;8.688;2023-03-03T15:05:32;100755.66;;;10.43;42.92
3748;BME280;1889;50.058;8.688;2023-03-03T15:08:07;100755.66;;;10.43;42.92
3748;BME280;1889;50.058;8.688;2023-03-03T15:10:44;100748.86;;;10.70;43.17
3748;BME280;1889;50.058;8.688;2023-03-03T15:16:02;100749.08;;;11.80;41.93
3748;BME280;1889;50.058;8.688;2023-03-03T15:18:32;100753.39;;;11.85;41.67
3748;BME280;1889;50.058;8.688;2023-03-03T15:21:04;100753.39;;;11.85;41.67
3748;BME280;1889;50.058;8.688;2023-03-03T15:24:09;100752.31;;;11.64;41.23
3748;BME280;1889;50.058;8.688;2023-03-03T15:26:43;100749.94;;;12.43;41.50
3748;BME280;1889;50.058;8.688;2023-03-03T15:29:16;100747.66;;;12.76;40.61
3748;BME280;1889;50.058;8.688;2023-03-03T15:31:52;100742.42;;;12.98;39.79
3748;BME280;1889;50.058;8.688;2023-03-03T15:34:34;100742.11;;;13.42;38.69
3748;BME280;1889;50.058;8.688;2023-03-03T15:51:44;100742.78;;;14.54;35.69
3748;BME280;1889;50.058;8.688;2023-03-03T15:54:39;100734.34;;;13.32;37.46
3748;BME280;1889;50.058;8.688;2023-03-03T15:57:16;100734.39;;;13.53;37.12
3748;BME280;1889;50.058;8.688;2023-03-03T15:59:52;100731.55;;;13.18;37.43
3748;BME280;1889;50.058;8.688;2023-03-03T16:02:22;100740.36;;;11.75;38.76
3748;BME280;1889;50.058;8.688;2023-03-03T16:05:12;100740.50;;;11.97;38.46
3748;BME280;1889;50.058;8.688;2023-03-03T16:16:08;100758.67;;;11.45;39.60
3748;BME280;1889;50.058;8.688;2023-03-03T16:19:00;100758.22;;;11.03;40.65
3748;BME280;1889;50.058;8.688;2023-03-03T16:22:02;100760.31;;;10.65;41.52
3748;BME280;1889;50.058;8.688;2023-03-03T16:24:39;100765.64;;;10.59;41.75
3748;BME280;1889;50.058;8.688;2023-03-03T16:27:18;100763.50;;;10.52;41.97
3748;BME280;1889;50.058;8.688;2023-03-03T16:32:47;100766.63;;;10.41;42.37
3748;BME280;1889;50.058;8.688;2023-03-03T16:35:25;100766.75;;;10.17;43.24
3748;BME280;1889;50.058;8.688;2023-03-03T16:38:00;100771.95;;;10.33;42.75
3748;BME280;1889;50.058;8.688;2023-03-03T16:40:38;100767.94;;;10.46;42.34
3748;BME280;1889;50.058;8.688;2023-03-03T16:43:18;100778.41;;;10.52;42.40
3748;BME280;1889;50.058;8.688;2023-03-03T16:45:47;100774.80;;;10.63;42.22
3748;BME280;1889;50.058;8.688;2023-03-03T16:48:32;100772.54;;;10.72;42.15
3748;BME280;1889;50.058;8.688;2023-03-03T16:51:20;100770.52;;;10.52;42.57